createdAt,value
2023-05-23T00:00:59.140Z,21.37
2023-05-23T00:03:31.398Z,21.36
2023-05-23T00:05:59.062Z,21.34
2023-05-23T00:08:26.122Z,21.29
2023-05-23T00:10:52.918Z,21.28
2023-05-23T00:13:19.966Z,21.23
2023-05-23T00:15:48.686Z,21.13
2023-05-23T00:18:16.510Z,21.12
2023-05-23T00:20:43.433Z,21.11
2023-05-23T00:23:10.980Z,21.05
2023-05-23T00:25:38.304Z,21.03
2023-05-23T00:28:06.259Z,21.03
2023-05-23T00:30:33.994Z,20.99
2023-05-23T00:33:01.490Z,20.88
2023-05-23T00:35:28.356Z,20.81
2023-05-23T00:37:55.625Z,20.81
2023-05-23T00:40:22.994Z,20.78
2023-05-23T00:42:50.134Z,20.71
2023-05-23T00:45:19.818Z,20.70
2023-05-23T00:47:47.280Z,20.65
2023-05-23T00:50:16.894Z,20.56
2023-05-23T00:52:44.807Z,20.53
2023-05-23T00:55:12.238Z,20.52
2023-05-23T00:57:44.543Z,20.48
2023-05-23T01:00:12.597Z,20.47
2023-05-23T01:02:47.280Z,20.40
2023-05-23T01:05:17.668Z,20.35
2023-05-23T01:07:45.548Z,20.36
2023-05-23T01:10:13.408Z,20.28
2023-05-23T01:12:58.437Z,20.18
2023-05-23T01:15:47.491Z,20.22
2023-05-23T01:18:38.325Z,20.15
2023-05-23T01:21:32.018Z,20.16
2023-05-23T01:24:12.897Z,20.04
2023-05-23T01:27:04.735Z,20.02
2023-05-23T01:29:37.718Z,19.96
2023-05-23T01:32:06.766Z,19.89
2023-05-23T01:34:35.301Z,19.91
2023-05-23T01:37:02.067Z,19.88
2023-05-23T01:39:29.200Z,19.83
2023-05-23T01:41:56.010Z,19.75
2023-05-23T01:44:23.099Z,19.67
2023-05-23T01:46:49.882Z,19.62
2023-05-23T01:49:17.026Z,19.63
2023-05-23T01:51:44.101Z,19.59
2023-05-23T01:54:11.339Z,19.58
2023-05-23T01:56:38.130Z,19.63
2023-05-23T01:59:05.206Z,19.57
2023-05-23T02:01:32.047Z,19.53
2023-05-23T02:03:59.079Z,19.49
2023-05-23T02:06:25.896Z,19.42
2023-05-23T02:08:52.961Z,19.35
2023-05-23T02:11:19.679Z,19.41
2023-05-23T02:13:46.762Z,19.33
2023-05-23T02:16:14.048Z,19.32
2023-05-23T02:18:41.097Z,19.23
2023-05-23T02:21:07.856Z,19.25
2023-05-23T02:23:34.940Z,19.20
2023-05-23T02:26:01.786Z,19.09
2023-05-23T02:28:28.843Z,19.18
2023-05-23T02:30:56.201Z,19.08
2023-05-23T02:33:23.278Z,19.04
2023-05-23T02:35:51.541Z,18.98
2023-05-23T02:38:20.664Z,19.01
2023-05-23T02:40:47.481Z,18.93
2023-05-23T02:43:14.630Z,18.90
2023-05-23T02:45:41.599Z,18.91
2023-05-23T02:48:08.883Z,18.88
2023-05-23T02:50:35.663Z,18.80
2023-05-23T02:53:02.674Z,18.70
2023-05-23T02:55:29.541Z,18.74
2023-05-23T02:57:56.884Z,18.68
2023-05-23T03:00:23.668Z,18.70
2023-05-23T03:02:51.310Z,18.61
2023-05-23T03:05:18.788Z,18.65
2023-05-23T03:07:45.958Z,18.64
2023-05-23T03:10:12.721Z,18.61
2023-05-23T03:12:39.867Z,18.58
2023-05-23T03:15:07.065Z,18.46
2023-05-23T03:17:34.143Z,18.48
2023-05-23T03:20:00.957Z,18.50
2023-05-23T03:22:28.061Z,18.45
2023-05-23T03:24:54.863Z,18.43
2023-05-23T03:27:21.963Z,18.44
2023-05-23T03:29:48.707Z,18.35
2023-05-23T03:32:15.950Z,18.32
2023-05-23T03:34:42.817Z,18.38
2023-05-23T03:37:09.903Z,18.34
2023-05-23T03:39:39.369Z,18.31
2023-05-23T03:42:07.289Z,18.23
2023-05-23T03:44:34.080Z,18.19
2023-05-23T03:47:01.141Z,18.25
2023-05-23T03:49:27.990Z,18.20
2023-05-23T03:51:55.309Z,18.20
2023-05-23T03:54:22.063Z,18.19
2023-05-23T03:56:49.379Z,18.17
2023-05-23T03:59:16.151Z,18.21
2023-05-23T04:01:43.218Z,18.22
2023-05-23T04:04:10.095Z,18.24
2023-05-23T04:06:37.192Z,18.20
2023-05-23T04:09:05.629Z,18.24
2023-05-23T04:11:32.695Z,18.35
2023-05-23T04:13:59.509Z,18.34
2023-05-23T04:16:26.684Z,18.39
2023-05-23T04:18:54.409Z,18.50
2023-05-23T04:21:21.587Z,18.60
2023-05-23T04:23:48.932Z,18.44
2023-05-23T04:26:16.175Z,18.38
2023-05-23T04:28:46.306Z,18.60
2023-05-23T04:31:13.908Z,18.63
2023-05-23T04:33:41.223Z,18.57
2023-05-23T04:36:09.414Z,18.58
2023-05-23T04:38:38.506Z,18.70
2023-05-23T04:41:06.568Z,18.77
2023-05-23T04:43:37.360Z,18.75
2023-05-23T04:46:04.558Z,18.71
2023-05-23T04:48:31.630Z,18.68
2023-05-23T04:51:02.318Z,18.82
2023-05-23T04:53:29.083Z,18.90
2023-05-23T04:55:56.617Z,18.83
2023-05-23T04:58:23.637Z,18.83
2023-05-23T05:00:50.843Z,18.89
2023-05-23T05:03:17.768Z,18.90
2023-05-23T05:05:44.882Z,18.94
2023-05-23T05:08:11.673Z,19.02
2023-05-23T05:10:40.634Z,19.07
2023-05-23T05:13:07.544Z,19.12
2023-05-23T05:15:34.633Z,19.20
2023-05-23T05:18:01.450Z,19.25
2023-05-23T05:20:28.729Z,19.30
2023-05-23T05:22:57.208Z,19.38
2023-05-23T05:25:24.571Z,19.44
2023-05-23T05:27:52.533Z,19.49
2023-05-23T05:30:19.804Z,19.55
2023-05-23T05:32:46.787Z,19.60
2023-05-23T05:35:16.958Z,19.69
2023-05-23T05:37:43.804Z,19.74
2023-05-23T05:40:12.260Z,19.80
2023-05-23T05:42:38.984Z,19.91
2023-05-23T05:45:06.752Z,19.98
2023-05-23T05:47:33.468Z,20.05
2023-05-23T05:50:00.585Z,20.07
2023-05-23T05:52:27.310Z,20.13
2023-05-23T05:54:54.358Z,20.20
2023-05-23T05:57:21.171Z,20.25
2023-05-23T05:59:48.208Z,20.30
2023-05-23T06:02:14.988Z,20.36
2023-05-23T06:04:42.176Z,20.41
2023-05-23T06:07:09.491Z,20.46
2023-05-23T06:09:36.660Z,20.52
2023-05-23T06:12:03.587Z,20.61
2023-05-23T06:14:30.722Z,20.69
2023-05-23T06:16:57.899Z,20.74
2023-05-23T06:19:25.184Z,20.83
2023-05-23T06:21:52.937Z,20.91
2023-05-23T06:24:20.018Z,20.95
2023-05-23T06:26:46.774Z,21.02
2023-05-23T06:29:13.932Z,21.06
2023-05-23T06:31:40.753Z,21.16
2023-05-23T06:34:07.856Z,21.22
2023-05-23T06:36:34.651Z,21.30
2023-05-23T06:39:01.751Z,21.35
2023-05-23T06:41:28.502Z,21.45
2023-05-23T06:43:55.650Z,21.51
2023-05-23T06:46:22.494Z,21.62
2023-05-23T06:48:56.432Z,21.72
2023-05-23T06:51:29.756Z,21.79
2023-05-23T06:53:57.233Z,21.85
2023-05-23T06:56:24.131Z,21.89
2023-05-23T06:58:51.223Z,21.97
2023-05-23T07:01:17.998Z,22.03
2023-05-23T07:03:45.911Z,22.11
2023-05-23T07:06:12.774Z,22.24
2023-05-23T07:08:39.936Z,22.30
2023-05-23T07:11:06.816Z,22.38
2023-05-23T07:13:34.187Z,22.45
2023-05-23T07:16:00.977Z,22.55
2023-05-23T07:18:28.065Z,22.64
2023-05-23T07:20:54.868Z,22.73
2023-05-23T07:23:23.692Z,22.82
2023-05-23T07:26:01.866Z,22.89
2023-05-23T07:28:30.304Z,22.98
2023-05-23T07:30:58.471Z,23.08
2023-05-23T07:33:25.776Z,23.19
2023-05-23T07:35:52.663Z,23.25
2023-05-23T07:38:19.771Z,23.34
2023-05-23T07:40:52.741Z,23.42
2023-05-23T07:43:26.199Z,23.53
2023-05-23T07:45:52.981Z,23.62
2023-05-23T07:48:20.071Z,23.72
2023-05-23T07:50:46.789Z,23.82
2023-05-23T07:53:13.905Z,23.89
2023-05-23T07:55:41.210Z,23.99
2023-05-23T07:58:08.319Z,24.07
2023-05-23T08:00:35.145Z,24.18
2023-05-23T08:03:02.270Z,24.26
2023-05-23T08:05:29.242Z,24.34
2023-05-23T08:07:56.465Z,24.44
2023-05-23T08:10:23.308Z,24.56
2023-05-23T08:12:50.455Z,24.70
2023-05-23T08:15:17.342Z,24.76
2023-05-23T08:17:44.578Z,24.88
2023-05-23T08:20:12.276Z,24.95
2023-05-23T08:22:39.386Z,25.03
2023-05-23T08:25:06.355Z,25.13
2023-05-23T08:27:35.702Z,25.24
2023-05-23T08:30:03.959Z,25.35
2023-05-23T08:32:31.047Z,25.42
2023-05-23T08:34:58.433Z,25.51
2023-05-23T08:37:25.634Z,25.60
2023-05-23T08:39:52.430Z,25.73
2023-05-23T08:42:19.615Z,25.79
2023-05-23T08:44:46.529Z,25.88
2023-05-23T08:47:13.601Z,26.00
2023-05-23T08:49:41.024Z,26.09
2023-05-23T08:52:08.218Z,26.19
2023-05-23T08:54:35.431Z,26.21
2023-05-23T08:57:02.997Z,26.33
2023-05-23T08:59:29.792Z,26.46
2023-05-23T09:01:57.347Z,26.55
2023-05-23T09:04:24.243Z,26.60
2023-05-23T09:06:51.356Z,26.76
2023-05-23T09:09:18.338Z,26.86
2023-05-23T09:11:46.181Z,26.95
2023-05-23T09:14:14.671Z,27.07
2023-05-23T09:16:42.051Z,27.22
2023-05-23T09:19:13.220Z,27.30
2023-05-23T09:21:46.665Z,27.38
2023-05-23T09:24:13.405Z,27.52
2023-05-23T09:26:40.631Z,27.61
2023-05-23T09:29:07.793Z,27.62
2023-05-23T09:31:35.023Z,27.71
2023-05-23T09:34:01.936Z,27.79
2023-05-23T09:36:30.302Z,27.86
2023-05-23T09:38:57.139Z,27.98
2023-05-23T09:41:25.234Z,28.08
2023-05-23T09:43:52.654Z,28.10
2023-05-23T09:46:20.521Z,28.14
2023-05-23T09:48:52.301Z,28.29
2023-05-23T09:51:23.460Z,28.35
2023-05-23T09:53:50.339Z,28.42
2023-05-23T09:56:17.643Z,28.56
2023-05-23T09:58:47.367Z,28.68
2023-05-23T10:01:14.887Z,28.77
2023-05-23T10:03:56.075Z,28.84
2023-05-23T10:06:53.344Z,28.92
2023-05-23T10:09:21.233Z,29.08
2023-05-23T10:11:57.520Z,29.13
2023-05-23T10:14:24.277Z,29.21
2023-05-23T10:17:06.884Z,29.30
2023-05-23T10:19:43.580Z,29.40
2023-05-23T10:22:10.923Z,29.51
2023-05-23T10:24:37.867Z,29.59
2023-05-23T10:27:05.081Z,29.65
2023-05-23T10:29:33.681Z,29.76
2023-05-23T10:32:02.764Z,29.88
2023-05-23T10:34:32.574Z,30.01
2023-05-23T10:37:01.730Z,30.12
2023-05-23T10:39:34.804Z,30.22
2023-05-23T10:42:10.608Z,30.29
2023-05-23T10:44:37.367Z,30.36
2023-05-23T10:47:05.050Z,30.43
2023-05-23T10:49:48.391Z,30.52
2023-05-23T10:52:17.006Z,30.60
2023-05-23T10:54:53.378Z,30.67
2023-05-23T10:57:27.933Z,30.74
2023-05-23T10:59:54.808Z,30.74
2023-05-23T11:02:26.476Z,30.79
2023-05-23T11:05:19.602Z,30.88
2023-05-23T11:07:46.744Z,30.88
2023-05-23T11:10:16.772Z,30.94
2023-05-23T11:12:44.550Z,31.00
2023-05-23T11:15:17.302Z,31.00
2023-05-23T11:17:54.370Z,30.99
2023-05-23T11:20:23.619Z,30.86
2023-05-23T11:23:01.227Z,30.58
2023-05-23T11:25:54.047Z,30.60
2023-05-23T11:28:21.396Z,30.55
2023-05-23T11:30:48.768Z,30.48
2023-05-23T11:33:17.085Z,30.43
2023-05-23T11:35:47.918Z,30.27
2023-05-23T11:38:18.337Z,30.21
2023-05-23T11:40:46.419Z,30.16
2023-05-23T11:43:15.646Z,30.13
2023-05-23T11:45:42.816Z,30.02
2023-05-23T11:48:11.915Z,29.96
2023-05-23T11:50:49.057Z,29.85
2023-05-23T11:53:18.742Z,29.76
2023-05-23T11:55:55.991Z,29.68
2023-05-23T11:58:26.343Z,29.58
2023-05-23T12:00:55.253Z,29.44
2023-05-23T12:03:22.844Z,29.35
2023-05-23T12:05:49.738Z,29.28
2023-05-23T12:08:16.832Z,29.14
2023-05-23T12:10:53.155Z,29.04
2023-05-23T12:13:20.808Z,28.96
2023-05-23T12:15:49.441Z,28.84
2023-05-23T12:18:20.197Z,28.74
2023-05-23T12:20:49.368Z,28.64
2023-05-23T12:23:24.573Z,28.63
2023-05-23T12:25:54.824Z,28.48
2023-05-23T12:28:22.827Z,28.43
2023-05-23T12:30:49.671Z,28.35
2023-05-23T12:33:18.615Z,28.21
2023-05-23T12:35:45.557Z,28.16
2023-05-23T12:38:16.475Z,28.09
2023-05-23T12:40:43.666Z,28.06
2023-05-23T12:43:11.287Z,28.04
2023-05-23T12:45:38.320Z,28.00
2023-05-23T12:48:07.103Z,27.96
2023-05-23T12:50:34.278Z,27.91
2023-05-23T12:53:01.468Z,27.89
2023-05-23T12:55:28.359Z,27.87
2023-05-23T12:57:55.432Z,27.90
2023-05-23T13:00:22.275Z,27.85
2023-05-23T13:02:50.513Z,27.87
2023-05-23T13:05:17.761Z,27.84
2023-05-23T13:07:44.826Z,27.85
2023-05-23T13:10:11.857Z,27.88
2023-05-23T13:12:38.940Z,27.90
2023-05-23T13:15:06.567Z,27.89
2023-05-23T13:17:33.730Z,27.88
2023-05-23T13:20:01.211Z,27.90
2023-05-23T13:22:29.058Z,27.90
2023-05-23T13:24:55.826Z,27.92
2023-05-23T13:27:22.900Z,27.90
2023-05-23T13:29:49.695Z,27.88
2023-05-23T13:32:16.838Z,27.88
2023-05-23T13:34:43.601Z,27.87
2023-05-23T13:37:10.832Z,27.84
2023-05-23T13:39:37.589Z,27.87
2023-05-23T13:42:04.814Z,27.83
2023-05-23T13:44:31.648Z,27.81
2023-05-23T13:47:11.826Z,27.78
2023-05-23T13:49:39.732Z,27.77
2023-05-23T13:52:06.805Z,27.77
2023-05-23T13:54:33.619Z,27.76
2023-05-23T13:57:01.333Z,27.76
2023-05-23T13:59:28.204Z,27.75
2023-05-23T14:01:55.357Z,27.68
2023-05-23T14:04:23.161Z,27.68
2023-05-23T14:06:50.942Z,27.64
2023-05-23T14:09:18.057Z,27.65
2023-05-23T14:11:45.288Z,27.64
2023-05-23T14:14:12.009Z,27.60
2023-05-23T14:16:39.151Z,27.57
2023-05-23T14:19:06.001Z,27.55
2023-05-23T14:21:33.763Z,27.52
2023-05-23T14:24:00.589Z,27.50
2023-05-23T14:26:27.875Z,27.49
2023-05-23T14:28:54.700Z,27.46
2023-05-23T14:31:22.142Z,27.42
2023-05-23T14:33:50.022Z,27.41
2023-05-23T14:36:17.209Z,27.41
2023-05-23T14:38:46.653Z,27.37
2023-05-23T14:41:14.079Z,27.33
2023-05-23T14:43:41.074Z,27.30
2023-05-23T14:46:09.170Z,27.27
2023-05-23T14:48:36.048Z,27.22
2023-05-23T14:51:03.349Z,27.22
2023-05-23T14:53:30.206Z,27.20
2023-05-23T14:55:57.306Z,27.18
2023-05-23T14:58:25.654Z,27.16
2023-05-23T15:00:52.868Z,27.12
2023-05-23T15:03:19.870Z,27.11
2023-05-23T15:05:49.024Z,27.07
2023-05-23T15:08:17.027Z,27.07
2023-05-23T15:10:45.501Z,27.05
2023-05-23T15:13:12.339Z,27.01
2023-05-23T15:15:40.898Z,27.00
2023-05-23T15:18:10.049Z,27.01
2023-05-23T15:20:37.300Z,26.97
2023-05-23T15:23:04.634Z,26.94
2023-05-23T15:25:48.084Z,26.93
2023-05-23T15:28:16.573Z,26.91
2023-05-23T15:30:44.010Z,26.88
2023-05-23T15:33:12.870Z,26.88
2023-05-23T15:35:40.399Z,26.87
2023-05-23T15:38:07.367Z,26.85
2023-05-23T15:40:34.482Z,26.83
2023-05-23T15:43:01.231Z,26.84
2023-05-23T15:45:28.306Z,26.83
2023-05-23T15:47:55.131Z,26.79
2023-05-23T15:50:22.278Z,26.81
2023-05-23T15:52:49.052Z,26.78
2023-05-23T15:55:16.185Z,26.78
2023-05-23T15:57:42.974Z,26.76
2023-05-23T16:00:10.614Z,26.76
2023-05-23T16:02:37.393Z,26.74
2023-05-23T16:05:04.737Z,26.71
2023-05-23T16:07:31.529Z,26.72
2023-05-23T16:09:58.597Z,26.73
2023-05-23T16:12:25.473Z,26.71
2023-05-23T16:14:52.525Z,26.69
2023-05-23T16:17:19.298Z,26.68
2023-05-23T16:19:46.497Z,26.64
2023-05-23T16:22:13.264Z,26.66
2023-05-23T16:24:40.329Z,26.64
2023-05-23T16:27:07.083Z,26.62
2023-05-23T16:29:34.342Z,26.61
2023-05-23T16:32:01.267Z,26.59
2023-05-23T16:34:28.368Z,26.56
2023-05-23T16:36:55.243Z,26.55
2023-05-23T16:39:22.310Z,26.51
2023-05-23T16:41:49.094Z,26.50
2023-05-23T16:44:16.273Z,26.46
2023-05-23T16:46:43.221Z,26.45
2023-05-23T16:49:11.086Z,26.44
2023-05-23T16:51:37.815Z,26.40
2023-05-23T16:54:05.022Z,26.38
2023-05-23T16:56:31.892Z,26.34
2023-05-23T16:58:58.999Z,26.32
2023-05-23T17:01:25.949Z,26.29
2023-05-23T17:03:53.469Z,26.29
2023-05-23T17:06:20.427Z,26.25
2023-05-23T17:08:47.551Z,26.24
2023-05-23T17:11:14.340Z,26.23
2023-05-23T17:13:41.485Z,26.21
2023-05-23T17:16:08.394Z,26.16
2023-05-23T17:18:36.270Z,26.17
2023-05-23T17:21:03.101Z,26.13
2023-05-23T17:23:30.235Z,26.09
2023-05-23T17:25:56.999Z,26.06
2023-05-23T17:28:24.101Z,26.04
2023-05-23T17:30:51.767Z,26.00
2023-05-23T17:33:19.307Z,25.96
2023-05-23T17:35:46.751Z,25.94
2023-05-23T17:38:13.800Z,25.90
2023-05-23T17:40:41.966Z,25.86
2023-05-23T17:43:09.412Z,25.83
2023-05-23T17:45:36.226Z,25.80
2023-05-23T17:48:04.007Z,25.77
2023-05-23T17:50:31.134Z,25.75
2023-05-23T17:52:59.167Z,25.72
2023-05-23T17:55:26.450Z,25.67
2023-05-23T17:57:53.497Z,25.65
2023-05-23T18:00:21.194Z,25.63
2023-05-23T18:02:48.457Z,25.59
2023-05-23T18:05:15.761Z,25.59
2023-05-23T18:07:42.864Z,25.52
2023-05-23T18:10:09.952Z,25.54
2023-05-23T18:12:37.009Z,25.49
2023-05-23T18:15:04.083Z,25.44
2023-05-23T18:17:31.251Z,25.41
2023-05-23T18:19:58.098Z,25.36
2023-05-23T18:22:25.636Z,25.34
2023-05-23T18:24:52.434Z,25.33
2023-05-23T18:27:19.504Z,25.32
2023-05-23T18:29:47.529Z,25.28
2023-05-23T18:32:15.090Z,25.25
2023-05-23T18:34:42.792Z,25.24
2023-05-23T18:37:09.887Z,25.19
2023-05-23T18:39:36.624Z,25.17
2023-05-23T18:42:04.084Z,25.13
2023-05-23T18:44:31.089Z,25.09
2023-05-23T18:46:58.215Z,25.07
2023-05-23T18:49:25.096Z,25.08
2023-05-23T18:51:54.329Z,25.04
2023-05-23T18:54:21.280Z,25.02
2023-05-23T18:56:48.331Z,24.99
2023-05-23T18:59:16.916Z,24.98
2023-05-23T19:01:44.029Z,24.96
2023-05-23T19:04:10.954Z,24.94
2023-05-23T19:06:38.289Z,24.93
2023-05-23T19:09:09.558Z,24.92
2023-05-23T19:11:37.507Z,24.87
2023-05-23T19:14:04.273Z,24.86
2023-05-23T19:16:31.625Z,24.81
2023-05-23T19:18:58.504Z,24.79
2023-05-23T19:21:26.608Z,24.72
2023-05-23T19:23:53.371Z,24.71
2023-05-23T19:26:20.704Z,24.65
2023-05-23T19:28:47.538Z,24.61
2023-05-23T19:31:14.692Z,24.58
2023-05-23T19:33:41.686Z,24.53
2023-05-23T19:36:08.755Z,24.49
2023-05-23T19:38:36.407Z,24.47
2023-05-23T19:41:03.560Z,24.41
2023-05-23T19:43:30.378Z,24.37
2023-05-23T19:45:57.556Z,24.30
2023-05-23T19:48:24.365Z,24.33
2023-05-23T19:50:51.633Z,24.23
2023-05-23T19:53:18.466Z,24.23
2023-05-23T19:55:45.673Z,24.21
2023-05-23T19:58:12.654Z,24.15
2023-05-23T20:00:40.154Z,24.15
2023-05-23T20:03:07.301Z,24.15
2023-05-23T20:05:34.562Z,24.11
2023-05-23T20:08:01.545Z,24.05
2023-05-23T20:10:28.693Z,23.98
2023-05-23T20:12:55.633Z,23.98
2023-05-23T20:15:38.092Z,23.97
2023-05-23T20:18:05.940Z,23.93
2023-05-23T20:20:33.100Z,23.89
2023-05-23T20:22:59.855Z,23.94
2023-05-23T20:25:29.632Z,23.87
2023-05-23T20:27:56.673Z,23.83
2023-05-23T20:30:23.776Z,23.85
2023-05-23T20:32:53.586Z,23.79
2023-05-23T20:35:23.560Z,23.70
2023-05-23T20:37:53.735Z,23.74
2023-05-23T20:40:22.228Z,23.71
2023-05-23T20:42:49.891Z,23.70
2023-05-23T20:45:17.393Z,23.67
2023-05-23T20:47:44.285Z,23.65
2023-05-23T20:50:12.707Z,23.62
2023-05-23T20:52:41.476Z,23.63
2023-05-23T20:55:08.919Z,23.59
2023-05-23T20:57:36.919Z,23.53
2023-05-23T21:00:13.440Z,23.49
2023-05-23T21:02:40.644Z,23.52
2023-05-23T21:05:08.365Z,23.42
2023-05-23T21:07:35.317Z,23.42
2023-05-23T21:10:02.734Z,23.44
2023-05-23T21:12:29.555Z,23.38
2023-05-23T21:14:57.161Z,23.43
2023-05-23T21:17:24.165Z,23.36
2023-05-23T21:19:51.588Z,23.33
2023-05-23T21:22:18.399Z,23.31
2023-05-23T21:24:45.482Z,23.33
2023-05-23T21:27:12.587Z,23.29
2023-05-23T21:29:39.678Z,23.28
2023-05-23T21:32:06.925Z,23.23
2023-05-23T21:34:34.034Z,23.22
2023-05-23T21:37:00.883Z,23.15
2023-05-23T21:39:39.281Z,23.15
2023-05-23T21:42:14.307Z,23.12
2023-05-23T21:44:41.513Z,23.12
2023-05-23T21:47:08.290Z,22.97
2023-05-23T21:49:35.587Z,22.97
2023-05-23T21:52:02.544Z,22.85
2023-05-23T21:54:29.667Z,22.94
2023-05-23T21:56:56.575Z,22.88
2023-05-23T21:59:23.862Z,22.88
2023-05-23T22:01:50.932Z,22.87
2023-05-23T22:04:21.060Z,22.81
2023-05-23T22:06:47.843Z,22.72
2023-05-23T22:09:15.464Z,22.79
2023-05-23T22:11:42.462Z,22.72
2023-05-23T22:14:09.904Z,22.56
2023-05-23T22:16:39.738Z,22.63
2023-05-23T22:19:08.053Z,22.58
2023-05-23T22:21:34.921Z,22.65
2023-05-23T22:24:01.956Z,22.61
2023-05-23T22:26:28.986Z,22.59
2023-05-23T22:28:56.208Z,22.48
2023-05-23T22:31:24.190Z,22.50
2023-05-23T22:33:51.494Z,22.47
2023-05-23T22:36:18.222Z,22.53
2023-05-23T22:38:45.754Z,22.43
2023-05-23T22:41:12.665Z,22.44
2023-05-23T22:43:40.156Z,22.40
2023-05-23T22:46:07.189Z,22.45
2023-05-23T22:48:35.478Z,22.37
2023-05-23T22:51:02.781Z,22.38
2023-05-23T22:53:30.148Z,22.33
2023-05-23T22:55:57.450Z,22.26
2023-05-23T22:58:24.549Z,22.29
2023-05-23T23:00:51.524Z,22.22
2023-05-23T23:03:18.837Z,22.24
2023-05-23T23:05:46.388Z,22.24
2023-05-23T23:08:13.599Z,22.27
2023-05-23T23:10:41.876Z,22.24
2023-05-23T23:13:09.303Z,22.20
2023-05-23T23:15:36.835Z,22.19
2023-05-23T23:18:05.942Z,22.16
2023-05-23T23:20:33.116Z,22.09
2023-05-23T23:23:00.658Z,22.05
2023-05-23T23:25:27.409Z,22.10
2023-05-23T23:27:54.493Z,21.96
2023-05-23T23:30:21.424Z,21.95
2023-05-23T23:32:48.526Z,22.03
2023-05-23T23:35:15.589Z,22.02
2023-05-23T23:37:42.630Z,21.96
2023-05-23T23:40:09.944Z,21.99
2023-05-23T23:42:37.129Z,21.98
2023-05-23T23:45:04.726Z,21.83
2023-05-23T23:47:32.625Z,21.94
2023-05-23T23:49:59.602Z,21.81
2023-05-23T23:52:28.222Z,21.85
2023-05-23T23:54:55.128Z,21.81
2023-05-23T23:57:22.275Z,21.77
2023-05-23T23:59:49.072Z,21.77
